sensor_id;sensor_type;location;lat;lon;timestamp;temperature;humidity
61117;DHT22;47002;50.856;6.580;2022-12-18T00:00:29;-8.30;93.00
61117;DHT22;47002;50.856;6.580;2022-12-18T00:02:55;-8.40;93.00
61117;DHT22;47002;50.856;6.580;2022-12-18T00:05:21;-8.40;93.00
61117;DHT22;47002;50.856;6.580;2022-12-18T00:07:47;-8.30;93.00
61117;DHT22;47002;50.856;6.580;2022-12-18T00:10:12;-8.40;92.90
61117;DHT22;47002;50.856;6.580;2022-12-18T00:12:39;-8.40;92.90
61117;DHT22;47002;50.856;6.580;2022-12-18T00:15:06;-8.40;92.90
61117;DHT22;47002;50.856;6.580;2022-12-18T00:17:31;-8.40;93.00
61117;DHT22;47002;50.856;6.580;2022-12-18T00:19:57;-8.40;93.00
61117;DHT22;47002;50.856;6.580;2022-12-18T00:22:23;-8.30;93.10
61117;DHT22;47002;50.856;6.580;2022-12-18T00:24:48;-8.20;93.10
61117;DHT22;47002;50.856;6.580;2022-12-18T00:27:14;-8.30;93.10
61117;DHT22;47002;50.856;6.580;2022-12-18T00:29:41;-8.30;93.00
61117;DHT22;47002;50.856;6.580;2022-12-18T00:32:07;-8.40;92.90
61117;DHT22;47002;50.856;6.580;2022-12-18T00:34:33;-8.50;92.80
61117;DHT22;47002;50.856;6.580;2022-12-18T00:36:58;-8.50;92.80
61117;DHT22;47002;50.856;6.580;2022-12-18T00:39:24;-8.60;92.80
61117;DHT22;47002;50.856;6.580;2022-12-18T00:41:50;-8.60;92.80
61117;DHT22;47002;50.856;6.580;2022-12-18T00:44:16;-8.60;92.80
61117;DHT22;47002;50.856;6.580;2022-12-18T00:46:44;-8.70;92.80
61117;DHT22;47002;50.856;6.580;2022-12-18T00:49:14;-8.70;92.80
61117;DHT22;47002;50.856;6.580;2022-12-18T00:51:40;-8.70;92.70
61117;DHT22;47002;50.856;6.580;2022-12-18T00:54:05;-8.80;92.70
61117;DHT22;47002;50.856;6.580;2022-12-18T00:56:31;-8.80;92.70
61117;DHT22;47002;50.856;6.580;2022-12-18T00:58:57;-8.80;92.80
61117;DHT22;47002;50.856;6.580;2022-12-18T01:01:23;-8.80;92.70
61117;DHT22;47002;50.856;6.580;2022-12-18T01:03:50;-8.80;92.70
61117;DHT22;47002;50.856;6.580;2022-12-18T01:06:16;-8.80;92.70
61117;DHT22;47002;50.856;6.580;2022-12-18T01:08:41;-8.90;92.60
61117;DHT22;47002;50.856;6.580;2022-12-18T01:11:08;-8.90;92.70
61117;DHT22;47002;50.856;6.580;2022-12-18T01:13:34;-8.90;92.70
61117;DHT22;47002;50.856;6.580;2022-12-18T01:15:59;-8.90;92.60
61117;DHT22;47002;50.856;6.580;2022-12-18T01:18:25;-9.00;92.60
61117;DHT22;47002;50.856;6.580;2022-12-18T01:20:52;-9.00;92.60
61117;DHT22;47002;50.856;6.580;2022-12-18T01:23:18;-9.00;92.60
61117;DHT22;47002;50.856;6.580;2022-12-18T01:25:43;-9.00;92.60
61117;DHT22;47002;50.856;6.580;2022-12-18T01:28:09;-9.00;92.60
61117;DHT22;47002;50.856;6.580;2022-12-18T01:30:35;-9.00;92.60
61117;DHT22;47002;50.856;6.580;2022-12-18T01:33:01;-9.10;92.50
61117;DHT22;47002;50.856;6.580;2022-12-18T01:35:26;-9.10;92.50
61117;DHT22;47002;50.856;6.580;2022-12-18T01:37:55;-9.20;92.50
61117;DHT22;47002;50.856;6.580;2022-12-18T01:40:21;-9.20;92.50
61117;DHT22;47002;50.856;6.580;2022-12-18T01:42:50;-9.20;92.50
61117;DHT22;47002;50.856;6.580;2022-12-18T01:45:25;-9.20;92.50
61117;DHT22;47002;50.856;6.580;2022-12-18T01:47:53;-9.30;92.40
61117;DHT22;47002;50.856;6.580;2022-12-18T01:50:22;-9.30;92.40
61117;DHT22;47002;50.856;6.580;2022-12-18T01:52:51;-9.30;92.40
61117;DHT22;47002;50.856;6.580;2022-12-18T01:55:20;-9.30;92.50
61117;DHT22;47002;50.856;6.580;2022-12-18T01:57:46;-9.30;92.50
61117;DHT22;47002;50.856;6.580;2022-12-18T02:00:15;-9.30;92.60
61117;DHT22;47002;50.856;6.580;2022-12-18T02:02:42;-9.20;92.70
61117;DHT22;47002;50.856;6.580;2022-12-18T02:05:09;-9.20;92.70
61117;DHT22;47002;50.856;6.580;2022-12-18T02:07:42;-9.10;92.80
61117;DHT22;47002;50.856;6.580;2022-12-18T02:10:15;-9.10;92.80
61117;DHT22;47002;50.856;6.580;2022-12-18T02:12:48;-9.20;92.70
61117;DHT22;47002;50.856;6.580;2022-12-18T02:15:28;-9.20;92.70
61117;DHT22;47002;50.856;6.580;2022-12-18T02:18:00;-9.20;92.80
61117;DHT22;47002;50.856;6.580;2022-12-18T02:20:32;-9.20;92.80
61117;DHT22;47002;50.856;6.580;2022-12-18T02:23:09;-9.20;92.80
61117;DHT22;47002;50.856;6.580;2022-12-18T02:26:04;-9.20;92.80
61117;DHT22;47002;50.856;6.580;2022-12-18T02:28:34;-9.30;92.80
61117;DHT22;47002;50.856;6.580;2022-12-18T02:31:03;-9.30;92.80
61117;DHT22;47002;50.856;6.580;2022-12-18T02:33:32;-9.30;92.80
61117;DHT22;47002;50.856;6.580;2022-12-18T02:35:59;-9.30;92.80
61117;DHT22;47002;50.856;6.580;2022-12-18T02:38:25;-9.20;92.90
61117;DHT22;47002;50.856;6.580;2022-12-18T02:40:53;-9.20;93.00
61117;DHT22;47002;50.856;6.580;2022-12-18T02:43:20;-9.10;93.00
61117;DHT22;47002;50.856;6.580;2022-12-18T02:45:48;-9.10;93.10
61117;DHT22;47002;50.856;6.580;2022-12-18T02:48:14;-9.10;93.10
61117;DHT22;47002;50.856;6.580;2022-12-18T02:50:45;-9.00;93.20
61117;DHT22;47002;50.856;6.580;2022-12-18T02:53:18;-8.90;93.20
61117;DHT22;47002;50.856;6.580;2022-12-18T02:55:55;-8.90;93.30
61117;DHT22;47002;50.856;6.580;2022-12-18T02:58:30;-8.80;93.30
61117;DHT22;47002;50.856;6.580;2022-12-18T03:01:02;-8.80;93.30
61117;DHT22;47002;50.856;6.580;2022-12-18T03:03:31;-8.80;93.30
61117;DHT22;47002;50.856;6.580;2022-12-18T03:06:03;-8.80;93.30
61117;DHT22;47002;50.856;6.580;2022-12-18T03:08:34;-8.80;93.20
61117;DHT22;47002;50.856;6.580;2022-12-18T03:11:03;-8.80;93.20
61117;DHT22;47002;50.856;6.580;2022-12-18T03:13:34;-8.90;93.10
61117;DHT22;47002;50.856;6.580;2022-12-18T03:16:02;-8.90;93.10
61117;DHT22;47002;50.856;6.580;2022-12-18T03:18:33;-8.90;93.10
61117;DHT22;47002;50.856;6.580;2022-12-18T03:21:04;-8.90;93.10
61117;DHT22;47002;50.856;6.580;2022-12-18T03:23:34;-8.90;93.10
61117;DHT22;47002;50.856;6.580;2022-12-18T03:26:05;-8.90;93.10
61117;DHT22;47002;50.856;6.580;2022-12-18T03:28:36;-8.90;93.10
61117;DHT22;47002;50.856;6.580;2022-12-18T03:31:04;-8.90;93.00
61117;DHT22;47002;50.856;6.580;2022-12-18T03:33:34;-9.00;93.00
61117;DHT22;47002;50.856;6.580;2022-12-18T03:36:03;-9.00;93.00
61117;DHT22;47002;50.856;6.580;2022-12-18T03:38:29;-9.00;92.90
61117;DHT22;47002;50.856;6.580;2022-12-18T03:41:00;-9.10;92.90
61117;DHT22;47002;50.856;6.580;2022-12-18T03:43:38;-9.10;92.80
61117;DHT22;47002;50.856;6.580;2022-12-18T03:46:12;-9.10;92.80
61117;DHT22;47002;50.856;6.580;2022-12-18T03:48:43;-9.20;92.80
61117;DHT22;47002;50.856;6.580;2022-12-18T03:51:13;-9.20;92.80
61117;DHT22;47002;50.856;6.580;2022-12-18T03:53:45;-9.10;92.80
61117;DHT22;47002;50.856;6.580;2022-12-18T03:56:14;-9.10;92.80
61117;DHT22;47002;50.856;6.580;2022-12-18T03:58:43;-9.10;92.90
61117;DHT22;47002;50.856;6.580;2022-12-18T04:01:12;-9.10;92.90
61117;DHT22;47002;50.856;6.580;2022-12-18T04:03:39;-9.10;92.90
61117;DHT22;47002;50.856;6.580;2022-12-18T04:06:06;-9.10;92.90
61117;DHT22;47002;50.856;6.580;2022-12-18T04:08:32;-9.10;92.90
61117;DHT22;47002;50.856;6.580;2022-12-18T04:11:00;-9.10;92.90
61117;DHT22;47002;50.856;6.580;2022-12-18T04:13:29;-9.10;92.90
61117;DHT22;47002;50.856;6.580;2022-12-18T04:15:56;-9.10;92.90
61117;DHT22;47002;50.856;6.580;2022-12-18T04:18:21;-9.10;92.90
61117;DHT22;47002;50.856;6.580;2022-12-18T04:20:47;-9.10;92.90
61117;DHT22;47002;50.856;6.580;2022-12-18T04:23:13;-9.10;92.90
61117;DHT22;47002;50.856;6.580;2022-12-18T04:25:39;-9.10;93.00
61117;DHT22;47002;50.856;6.580;2022-12-18T04:28:04;-9.00;93.00
61117;DHT22;47002;50.856;6.580;2022-12-18T04:30:30;-9.00;93.00
61117;DHT22;47002;50.856;6.580;2022-12-18T04:32:57;-9.00;93.00
61117;DHT22;47002;50.856;6.580;2022-12-18T04:35:23;-9.00;93.00
61117;DHT22;47002;50.856;6.580;2022-12-18T04:37:48;-9.00;93.00
61117;DHT22;47002;50.856;6.580;2022-12-18T04:40:14;-9.00;93.00
61117;DHT22;47002;50.856;6.580;2022-12-18T04:42:40;-9.00;93.00
61117;DHT22;47002;50.856;6.580;2022-12-18T04:45:07;-9.00;92.90
61117;DHT22;47002;50.856;6.580;2022-12-18T04:47:33;-9.00;92.90
61117;DHT22;47002;50.856;6.580;2022-12-18T04:50:00;-9.10;92.90
61117;DHT22;47002;50.856;6.580;2022-12-18T04:52:26;-9.00;92.90
61117;DHT22;47002;50.856;6.580;2022-12-18T04:54:51;-9.00;93.00
61117;DHT22;47002;50.856;6.580;2022-12-18T04:57:17;-9.00;93.00
61117;DHT22;47002;50.856;6.580;2022-12-18T04:59:43;-9.00;92.90
61117;DHT22;47002;50.856;6.580;2022-12-18T05:02:08;-9.00;92.90
61117;DHT22;47002;50.856;6.580;2022-12-18T05:04:34;-9.00;92.90
61117;DHT22;47002;50.856;6.580;2022-12-18T05:07:01;-9.00;92.90
61117;DHT22;47002;50.856;6.580;2022-12-18T05:09:27;-9.00;92.80
61117;DHT22;47002;50.856;6.580;2022-12-18T05:11:52;-9.00;92.90
61117;DHT22;47002;50.856;6.580;2022-12-18T05:14:18;-9.00;92.80
61117;DHT22;47002;50.856;6.580;2022-12-18T05:16:44;-9.00;92.90
61117;DHT22;47002;50.856;6.580;2022-12-18T05:19:09;-9.00;92.90
61117;DHT22;47002;50.856;6.580;2022-12-18T05:21:35;-9.00;92.90
61117;DHT22;47002;50.856;6.580;2022-12-18T05:24:02;-9.00;92.90
61117;DHT22;47002;50.856;6.580;2022-12-18T05:26:28;-9.00;92.90
61117;DHT22;47002;50.856;6.580;2022-12-18T05:28:54;-9.00;92.90
61117;DHT22;47002;50.856;6.580;2022-12-18T05:31:20;-9.00;92.80
61117;DHT22;47002;50.856;6.580;2022-12-18T05:33:45;-9.00;92.80
61117;DHT22;47002;50.856;6.580;2022-12-18T05:36:11;-9.10;92.80
61117;DHT22;47002;50.856;6.580;2022-12-18T05:38:38;-9.10;92.80
61117;DHT22;47002;50.856;6.580;2022-12-18T05:41:06;-9.10;92.80
61117;DHT22;47002;50.856;6.580;2022-12-18T05:43:33;-9.10;92.70
61117;DHT22;47002;50.856;6.580;2022-12-18T05:46:03;-9.10;92.70
61117;DHT22;47002;50.856;6.580;2022-12-18T05:48:29;-9.10;92.70
61117;DHT22;47002;50.856;6.580;2022-12-18T05:50:55;-9.20;92.70
61117;DHT22;47002;50.856;6.580;2022-12-18T05:53:21;-9.10;92.70
61117;DHT22;47002;50.856;6.580;2022-12-18T05:55:47;-9.20;92.70
61117;DHT22;47002;50.856;6.580;2022-12-18T05:58:14;-9.10;92.90
61117;DHT22;47002;50.856;6.580;2022-12-18T06:00:42;-9.10;92.90
61117;DHT22;47002;50.856;6.580;2022-12-18T06:03:09;-9.00;92.90
61117;DHT22;47002;50.856;6.580;2022-12-18T06:05:35;-9.00;92.90
61117;DHT22;47002;50.856;6.580;2022-12-18T06:08:01;-9.00;92.90
61117;DHT22;47002;50.856;6.580;2022-12-18T06:10:27;-9.00;92.90
61117;DHT22;47002;50.856;6.580;2022-12-18T06:12:52;-9.00;92.90
61117;DHT22;47002;50.856;6.580;2022-12-18T06:15:19;-9.00;93.00
61117;DHT22;47002;50.856;6.580;2022-12-18T06:17:45;-8.90;93.00
61117;DHT22;47002;50.856;6.580;2022-12-18T06:20:11;-8.90;93.10
61117;DHT22;47002;50.856;6.580;2022-12-18T06:22:36;-8.80;93.10
61117;DHT22;47002;50.856;6.580;2022-12-18T06:25:02;-8.80;93.10
61117;DHT22;47002;50.856;6.580;2022-12-18T06:27:28;-8.90;93.00
61117;DHT22;47002;50.856;6.580;2022-12-18T06:29:54;-8.90;92.90
61117;DHT22;47002;50.856;6.580;2022-12-18T06:32:23;-9.00;92.80
61117;DHT22;47002;50.856;6.580;2022-12-18T06:34:49;-9.00;92.70
61117;DHT22;47002;50.856;6.580;2022-12-18T06:37:14;-9.00;92.80
61117;DHT22;47002;50.856;6.580;2022-12-18T06:39:40;-9.00;92.80
61117;DHT22;47002;50.856;6.580;2022-12-18T06:42:06;-9.00;92.90
61117;DHT22;47002;50.856;6.580;2022-12-18T06:44:31;-8.90;93.00
61117;DHT22;47002;50.856;6.580;2022-12-18T06:46:57;-8.90;93.00
61117;DHT22;47002;50.856;6.580;2022-12-18T06:49:24;-8.90;93.00
61117;DHT22;47002;50.856;6.580;2022-12-18T06:51:50;-8.80;93.00
61117;DHT22;47002;50.856;6.580;2022-12-18T06:54:16;-8.80;93.00
61117;DHT22;47002;50.856;6.580;2022-12-18T06:56:41;-8.70;93.00
61117;DHT22;47002;50.856;6.580;2022-12-18T06:59:07;-8.70;93.10
61117;DHT22;47002;50.856;6.580;2022-12-18T07:01:33;-8.70;93.10
61117;DHT22;47002;50.856;6.580;2022-12-18T07:03:59;-8.60;93.10
61117;DHT22;47002;50.856;6.580;2022-12-18T07:06:26;-8.60;93.10
61117;DHT22;47002;50.856;6.580;2022-12-18T07:08:53;-8.60;93.10
61117;DHT22;47002;50.856;6.580;2022-12-18T07:11:19;-8.60;93.10
61117;DHT22;47002;50.856;6.580;2022-12-18T07:13:45;-8.50;93.10
61117;DHT22;47002;50.856;6.580;2022-12-18T07:16:13;-8.50;93.10
61117;DHT22;47002;50.856;6.580;2022-12-18T07:18:39;-8.50;93.00
61117;DHT22;47002;50.856;6.580;2022-12-18T07:21:07;-8.50;93.00
61117;DHT22;47002;50.856;6.580;2022-12-18T07:23:35;-8.40;93.10
61117;DHT22;47002;50.856;6.580;2022-12-18T07:26:02;-8.40;93.10
61117;DHT22;47002;50.856;6.580;2022-12-18T07:28:27;-8.30;93.10
61117;DHT22;47002;50.856;6.580;2022-12-18T07:30:53;-8.30;93.00
61117;DHT22;47002;50.856;6.580;2022-12-18T07:33:19;-8.30;93.00
61117;DHT22;47002;50.856;6.580;2022-12-18T07:35:44;-8.30;93.00
61117;DHT22;47002;50.856;6.580;2022-12-18T07:38:10;-8.30;92.90
61117;DHT22;47002;50.856;6.580;2022-12-18T07:40:37;-8.30;92.80
61117;DHT22;47002;50.856;6.580;2022-12-18T07:43:03;-8.30;92.70
61117;DHT22;47002;50.856;6.580;2022-12-18T07:45:28;-8.30;92.70
61117;DHT22;47002;50.856;6.580;2022-12-18T07:47:54;-8.20;92.70
61117;DHT22;47002;50.856;6.580;2022-12-18T07:50:20;-8.20;92.60
61117;DHT22;47002;50.856;6.580;2022-12-18T07:52:45;-8.20;92.60
61117;DHT22;47002;50.856;6.580;2022-12-18T07:55:11;-8.20;92.60
61117;DHT22;47002;50.856;6.580;2022-12-18T07:57:38;-8.20;92.60
61117;DHT22;47002;50.856;6.580;2022-12-18T08:00:05;-8.10;92.60
61117;DHT22;47002;50.856;6.580;2022-12-18T08:02:31;-8.10;92.60
61117;DHT22;47002;50.856;6.580;2022-12-18T08:04:57;-8.00;92.60
61117;DHT22;47002;50.856;6.580;2022-12-18T08:07:23;-7.90;92.60
61117;DHT22;47002;50.856;6.580;2022-12-18T08:09:48;-7.90;92.50
61117;DHT22;47002;50.856;6.580;2022-12-18T08:12:14;-7.90;92.40
61117;DHT22;47002;50.856;6.580;2022-12-18T08:14:41;-7.80;92.40
61117;DHT22;47002;50.856;6.580;2022-12-18T08:17:06;-7.80;92.40
61117;DHT22;47002;50.856;6.580;2022-12-18T08:19:32;-7.70;92.40
61117;DHT22;47002;50.856;6.580;2022-12-18T08:21:58;-7.60;92.40
61117;DHT22;47002;50.856;6.580;2022-12-18T08:24:24;-7.50;92.40
61117;DHT22;47002;50.856;6.580;2022-12-18T08:26:49;-7.40;92.40
61117;DHT22;47002;50.856;6.580;2022-12-18T08:29:15;-7.40;92.30
61117;DHT22;47002;50.856;6.580;2022-12-18T08:31:42;-7.30;92.10
61117;DHT22;47002;50.856;6.580;2022-12-18T08:34:08;-7.30;92.00
61117;DHT22;47002;50.856;6.580;2022-12-18T08:36:34;-7.20;92.00
61117;DHT22;47002;50.856;6.580;2022-12-18T08:38:59;-7.10;92.00
61117;DHT22;47002;50.856;6.580;2022-12-18T08:41:25;-7.10;91.90
61117;DHT22;47002;50.856;6.580;2022-12-18T08:43:51;-7.00;91.80
61117;DHT22;47002;50.856;6.580;2022-12-18T08:46:17;-6.90;91.80
61117;DHT22;47002;50.856;6.580;2022-12-18T08:48:44;-6.80;91.70
61117;DHT22;47002;50.856;6.580;2022-12-18T08:51:10;-6.80;91.60
61117;DHT22;47002;50.856;6.580;2022-12-18T08:53:35;-6.70;91.60
61117;DHT22;47002;50.856;6.580;2022-12-18T08:56:01;-6.50;91.80
61117;DHT22;47002;50.856;6.580;2022-12-18T08:58:27;-6.40;91.70
61117;DHT22;47002;50.856;6.580;2022-12-18T09:00:53;-6.30;91.70
61117;DHT22;47002;50.856;6.580;2022-12-18T09:03:19;-6.20;91.50
61117;DHT22;47002;50.856;6.580;2022-12-18T09:05:46;-6.20;91.10
61117;DHT22;47002;50.856;6.580;2022-12-18T09:08:12;-6.10;91.10
61117;DHT22;47002;50.856;6.580;2022-12-18T09:10:42;-6.10;90.80
61117;DHT22;47002;50.856;6.580;2022-12-18T09:13:07;-6.00;90.80
61117;DHT22;47002;50.856;6.580;2022-12-18T09:15:34;-5.90;90.70
61117;DHT22;47002;50.856;6.580;2022-12-18T09:18:05;-5.90;90.70
61117;DHT22;47002;50.856;6.580;2022-12-18T09:20:30;-5.80;90.90
61117;DHT22;47002;50.856;6.580;2022-12-18T09:22:57;-5.70;90.70
61117;DHT22;47002;50.856;6.580;2022-12-18T09:25:23;-5.60;90.50
61117;DHT22;47002;50.856;6.580;2022-12-18T09:27:49;-5.50;90.30
61117;DHT22;47002;50.856;6.580;2022-12-18T09:30:14;-5.30;90.60
61117;DHT22;47002;50.856;6.580;2022-12-18T09:32:40;-5.20;90.30
61117;DHT22;47002;50.856;6.580;2022-12-18T09:35:06;-5.10;90.30
61117;DHT22;47002;50.856;6.580;2022-12-18T09:37:32;-5.00;90.20
61117;DHT22;47002;50.856;6.580;2022-12-18T09:39:59;-5.00;89.60
61117;DHT22;47002;50.856;6.580;2022-12-18T09:42:25;-4.90;89.60
61117;DHT22;47002;50.856;6.580;2022-12-18T09:44:53;-4.80;89.60
61117;DHT22;47002;50.856;6.580;2022-12-18T09:47:23;-4.80;89.50
61117;DHT22;47002;50.856;6.580;2022-12-18T09:49:52;-4.70;89.30
61117;DHT22;47002;50.856;6.580;2022-12-18T09:52:23;-4.60;89.50
61117;DHT22;47002;50.856;6.580;2022-12-18T09:54:53;-4.50;89.50
61117;DHT22;47002;50.856;6.580;2022-12-18T09:57:23;-4.40;89.30
61117;DHT22;47002;50.856;6.580;2022-12-18T09:59:53;-4.20;89.40
61117;DHT22;47002;50.856;6.580;2022-12-18T10:02:22;-4.10;89.50
61117;DHT22;47002;50.856;6.580;2022-12-18T10:05:06;-3.90;89.50
61117;DHT22;47002;50.856;6.580;2022-12-18T10:07:45;-3.80;89.30
61117;DHT22;47002;50.856;6.580;2022-12-18T10:10:27;-3.70;88.60
61117;DHT22;47002;50.856;6.580;2022-12-18T10:13:03;-3.60;88.30
61117;DHT22;47002;50.856;6.580;2022-12-18T10:15:35;-3.40;88.10
61117;DHT22;47002;50.856;6.580;2022-12-18T10:18:12;-3.40;88.00
61117;DHT22;47002;50.856;6.580;2022-12-18T10:20:44;-3.30;87.90
61117;DHT22;47002;50.856;6.580;2022-12-18T10:23:17;-3.10;87.70
61117;DHT22;47002;50.856;6.580;2022-12-18T10:25:51;-3.00;87.80
61117;DHT22;47002;50.856;6.580;2022-12-18T10:28:20;-2.90;86.60
61117;DHT22;47002;50.856;6.580;2022-12-18T10:30:47;-2.80;86.40
61117;DHT22;47002;50.856;6.580;2022-12-18T10:33:13;-2.80;85.90
61117;DHT22;47002;50.856;6.580;2022-12-18T10:35:42;-2.70;85.50
61117;DHT22;47002;50.856;6.580;2022-12-18T10:38:21;-2.70;85.40
61117;DHT22;47002;50.856;6.580;2022-12-18T10:40:52;-2.70;85.20
61117;DHT22;47002;50.856;6.580;2022-12-18T10:43:23;-2.60;85.00
61117;DHT22;47002;50.856;6.580;2022-12-18T10:46:04;-2.60;84.80
61117;DHT22;47002;50.856;6.580;2022-12-18T10:48:32;-2.60;84.80
61117;DHT22;47002;50.856;6.580;2022-12-18T10:50:59;-2.50;84.60
61117;DHT22;47002;50.856;6.580;2022-12-18T10:53:27;-2.50;84.60
61117;DHT22;47002;50.856;6.580;2022-12-18T10:55:55;-2.40;85.10
61117;DHT22;47002;50.856;6.580;2022-12-18T10:58:25;-2.20;84.70
61117;DHT22;47002;50.856;6.580;2022-12-18T11:01:09;-2.20;84.40
61117;DHT22;47002;50.856;6.580;2022-12-18T11:03:37;-2.10;84.00
61117;DHT22;47002;50.856;6.580;2022-12-18T11:06:06;-2.00;83.30
61117;DHT22;47002;50.856;6.580;2022-12-18T11:08:32;-2.00;83.50
61117;DHT22;47002;50.856;6.580;2022-12-18T11:10:58;-1.90;83.70
61117;DHT22;47002;50.856;6.580;2022-12-18T11:13:27;-1.90;83.70
61117;DHT22;47002;50.856;6.580;2022-12-18T11:15:53;-1.80;83.70
61117;DHT22;47002;50.856;6.580;2022-12-18T11:18:25;-1.80;84.20
61117;DHT22;47002;50.856;6.580;2022-12-18T11:20:52;-1.70;84.20
61117;DHT22;47002;50.856;6.580;2022-12-18T11:23:20;-1.70;83.20
61117;DHT22;47002;50.856;6.580;2022-12-18T11:25:52;-1.70;83.30
61117;DHT22;47002;50.856;6.580;2022-12-18T11:28:29;-1.70;82.20
61117;DHT22;47002;50.856;6.580;2022-12-18T11:31:18;-1.70;82.70
61117;DHT22;47002;50.856;6.580;2022-12-18T11:33:46;-1.70;83.10
61117;DHT22;47002;50.856;6.580;2022-12-18T11:36:14;-1.60;83.70
61117;DHT22;47002;50.856;6.580;2022-12-18T11:38:41;-1.50;84.20
61117;DHT22;47002;50.856;6.580;2022-12-18T11:41:16;-1.40;82.90
61117;DHT22;47002;50.856;6.580;2022-12-18T11:43:50;-1.50;81.90
61117;DHT22;47002;50.856;6.580;2022-12-18T11:46:25;-1.50;81.50
61117;DHT22;47002;50.856;6.580;2022-12-18T11:48:58;-1.60;80.90
61117;DHT22;47002;50.856;6.580;2022-12-18T11:51:28;-1.60;81.70
61117;DHT22;47002;50.856;6.580;2022-12-18T11:53:55;-1.60;80.70
61117;DHT22;47002;50.856;6.580;2022-12-18T11:56:29;-1.60;81.10
61117;DHT22;47002;50.856;6.580;2022-12-18T11:59:07;-1.60;81.00
61117;DHT22;47002;50.856;6.580;2022-12-18T12:01:43;-1.60;81.20
61117;DHT22;47002;50.856;6.580;2022-12-18T12:04:35;-1.70;81.00
61117;DHT22;47002;50.856;6.580;2022-12-18T12:07:16;-1.60;81.70
61117;DHT22;47002;50.856;6.580;2022-12-18T12:09:49;-1.60;81.30
61117;DHT22;47002;50.856;6.580;2022-12-18T12:12:27;-1.70;81.20
61117;DHT22;47002;50.856;6.580;2022-12-18T12:15:02;-1.70;79.40
61117;DHT22;47002;50.856;6.580;2022-12-18T12:17:37;-1.70;79.90
61117;DHT22;47002;50.856;6.580;2022-12-18T12:20:14;-1.70;80.20
61117;DHT22;47002;50.856;6.580;2022-12-18T12:22:52;-1.70;80.40
61117;DHT22;47002;50.856;6.580;2022-12-18T12:25:28;-1.70;80.70
61117;DHT22;47002;50.856;6.580;2022-12-18T12:28:06;-1.70;81.00
61117;DHT22;47002;50.856;6.580;2022-12-18T12:30:44;-1.60;80.40
61117;DHT22;47002;50.856;6.580;2022-12-18T12:33:23;-1.60;80.60
61117;DHT22;47002;50.856;6.580;2022-12-18T12:35:57;-1.60;79.80
61117;DHT22;47002;50.856;6.580;2022-12-18T12:38:27;-1.60;79.90
61117;DHT22;47002;50.856;6.580;2022-12-18T12:40:58;-1.60;79.80
61117;DHT22;47002;50.856;6.580;2022-12-18T12:43:29;-1.60;79.20
61117;DHT22;47002;50.856;6.580;2022-12-18T12:46:00;-1.60;79.20
61117;DHT22;47002;50.856;6.580;2022-12-18T12:48:35;-1.60;79.20
61117;DHT22;47002;50.856;6.580;2022-12-18T12:51:09;-1.50;78.50
61117;DHT22;47002;50.856;6.580;2022-12-18T12:53:37;-1.50;79.10
61117;DHT22;47002;50.856;6.580;2022-12-18T12:56:04;-1.40;79.30
61117;DHT22;47002;50.856;6.580;2022-12-18T12:58:36;-1.40;78.90
61117;DHT22;47002;50.856;6.580;2022-12-18T13:01:11;-1.40;77.60
61117;DHT22;47002;50.856;6.580;2022-12-18T13:03:44;-1.50;77.80
61117;DHT22;47002;50.856;6.580;2022-12-18T13:06:16;-1.60;78.50
61117;DHT22;47002;50.856;6.580;2022-12-18T13:08:56;-1.60;78.60
61117;DHT22;47002;50.856;6.580;2022-12-18T13:11:34;-1.70;78.40
61117;DHT22;47002;50.856;6.580;2022-12-18T13:14:00;-1.70;78.60
61117;DHT22;47002;50.856;6.580;2022-12-18T13:16:27;-1.70;78.50
61117;DHT22;47002;50.856;6.580;2022-12-18T13:18:54;-1.70;77.20
61117;DHT22;47002;50.856;6.580;2022-12-18T13:21:24;-1.70;77.80
61117;DHT22;47002;50.856;6.580;2022-12-18T13:23:50;-1.80;78.20
61117;DHT22;47002;50.856;6.580;2022-12-18T13:26:33;-1.80;78.30
61117;DHT22;47002;50.856;6.580;2022-12-18T13:28:59;-1.80;78.90
61117;DHT22;47002;50.856;6.580;2022-12-18T13:34:34;-1.70;78.90
61117;DHT22;47002;50.856;6.580;2022-12-18T13:43:20;-1.80;78.00
61117;DHT22;47002;50.856;6.580;2022-12-18T13:45:49;-1.80;77.60
61117;DHT22;47002;50.856;6.580;2022-12-18T13:48:25;-1.80;77.70
61117;DHT22;47002;50.856;6.580;2022-12-18T13:50:59;-1.90;77.60
61117;DHT22;47002;50.856;6.580;2022-12-18T13:53:28;-2.00;77.90
61117;DHT22;47002;50.856;6.580;2022-12-18T13:55:55;-2.00;77.70
61117;DHT22;47002;50.856;6.580;2022-12-18T13:58:20;-2.10;77.60
61117;DHT22;47002;50.856;6.580;2022-12-18T14:00:46;-2.10;77.70
61117;DHT22;47002;50.856;6.580;2022-12-18T14:03:19;-2.10;78.30
61117;DHT22;47002;50.856;6.580;2022-12-18T14:05:45;-2.10;78.60
61117;DHT22;47002;50.856;6.580;2022-12-18T14:08:14;-2.20;78.10
61117;DHT22;47002;50.856;6.580;2022-12-18T14:10:41;-2.30;78.10
61117;DHT22;47002;50.856;6.580;2022-12-18T14:13:08;-2.40;78.20
61117;DHT22;47002;50.856;6.580;2022-12-18T14:15:36;-2.50;78.60
61117;DHT22;47002;50.856;6.580;2022-12-18T14:18:17;-2.50;78.70
61117;DHT22;47002;50.856;6.580;2022-12-18T14:20:44;-2.60;79.70
61117;DHT22;47002;50.856;6.580;2022-12-18T14:26:21;-2.40;83.60
61117;DHT22;47002;50.856;6.580;2022-12-18T14:28:47;-1.70;81.00
61117;DHT22;47002;50.856;6.580;2022-12-18T14:31:17;-1.70;78.10
61117;DHT22;47002;50.856;6.580;2022-12-18T14:33:43;-2.00;77.50
61117;DHT22;47002;50.856;6.580;2022-12-18T14:36:15;-2.20;77.90
61117;DHT22;47002;50.856;6.580;2022-12-18T14:38:41;-2.30;80.20
61117;DHT22;47002;50.856;6.580;2022-12-18T14:41:11;-2.20;80.60
61117;DHT22;47002;50.856;6.580;2022-12-18T14:43:38;-2.20;78.90
61117;DHT22;47002;50.856;6.580;2022-12-18T14:46:06;-2.30;79.20
61117;DHT22;47002;50.856;6.580;2022-12-18T14:48:51;-2.40;79.10
61117;DHT22;47002;50.856;6.580;2022-12-18T14:51:19;-2.60;79.00
61117;DHT22;47002;50.856;6.580;2022-12-18T14:53:47;-2.70;78.90
61117;DHT22;47002;50.856;6.580;2022-12-18T14:56:17;-2.80;79.30
61117;DHT22;47002;50.856;6.580;2022-12-18T14:58:47;-2.90;79.80
61117;DHT22;47002;50.856;6.580;2022-12-18T15:01:25;-2.90;80.20
61117;DHT22;47002;50.856;6.580;2022-12-18T15:03:52;-3.00;80.00
61117;DHT22;47002;50.856;6.580;2022-12-18T15:06:26;-3.00;80.60
61117;DHT22;47002;50.856;6.580;2022-12-18T15:08:52;-3.10;80.70
61117;DHT22;47002;50.856;6.580;2022-12-18T15:11:28;-3.10;80.40
61117;DHT22;47002;50.856;6.580;2022-12-18T15:13:54;-3.20;80.70
61117;DHT22;47002;50.856;6.580;2022-12-18T15:16:20;-3.20;81.20
61117;DHT22;47002;50.856;6.580;2022-12-18T15:18:46;-3.20;81.50
61117;DHT22;47002;50.856;6.580;2022-12-18T15:21:17;-3.30;81.30
61117;DHT22;47002;50.856;6.580;2022-12-18T15:23:46;-3.30;80.90
61117;DHT22;47002;50.856;6.580;2022-12-18T15:26:14;-3.40;81.20
61117;DHT22;47002;50.856;6.580;2022-12-18T15:28:46;-3.50;81.50
61117;DHT22;47002;50.856;6.580;2022-12-18T15:31:23;-3.40;81.90
61117;DHT22;47002;50.856;6.580;2022-12-18T15:34:11;-3.40;82.70
61117;DHT22;47002;50.856;6.580;2022-12-18T15:36:37;-3.50;82.30
61117;DHT22;47002;50.856;6.580;2022-12-18T15:39:03;-3.50;82.60
61117;DHT22;47002;50.856;6.580;2022-12-18T15:41:31;-3.50;82.20
61117;DHT22;47002;50.856;6.580;2022-12-18T15:43:59;-3.50;82.40
61117;DHT22;47002;50.856;6.580;2022-12-18T15:46:25;-3.50;82.30
61117;DHT22;47002;50.856;6.580;2022-12-18T15:48:52;-3.60;83.00
61117;DHT22;47002;50.856;6.580;2022-12-18T15:51:21;-3.50;83.50